Terminal Aerodrome Forecast
Issued by NWS

Home | Current Version | Previous Version | Graphics & Text | Print | Product List | Glossary On
Versions: 1 2 3 4 5 6 7 8 9 10 11 12 13
000
FTUS43 KFGF 152324
TAFBJI
TAF
KBJI 152324Z 1600/1624 27005KT P6SM BKN060
     FM160400 25005KT P6SM SCT150
     FM161900 21015G24KT P6SM FEW200
     FM162300 22011KT P6SM FEW250=

USA.gov is the U.S. government's official web portal to all federal, state and local government web resources and services.